Time;durP1;ratioP1;P1;durP2;ratioP2;P2;SDS_P1;SDS_P2;PMS_P1;PMS_P2;Temp;Humidity;BMP_temperature;BMP_pressure;BME280_temperature;BME280_humidity;BME280_pressure;Samples;Min_cycle;Max_cycle;Signal;HPM_P1;HPM_P2
2021/07/23 00:01:39;;;;;;;19.67;12.93;;;17.60;99.90;;;;;;5037356;28;20436;-80
2021/07/23 00:04:07;;;;;;;15.17;12.77;;;17.80;99.90;;;;;;5053981;28;20456;-80
2021/07/23 00:06:35;;;;;;;17.07;12.17;;;18.00;99.90;;;;;;5038873;28;20518;-79
2021/07/23 00:09:03;;;;;;;20.50;11.87;;;18.00;99.90;;;;;;5039429;28;20428;-79
2021/07/23 00:11:33;;;;;;;15.60;11.43;;;17.80;99.90;;;;;;5036655;28;20463;-80
2021/07/23 00:14:01;;;;;;;21.33;12.33;;;17.70;99.90;;;;;;5036953;28;20495;-80
2021/07/23 00:16:29;;;;;;;17.73;10.77;;;17.80;99.90;;;;;;5053854;28;20770;-79
2021/07/23 00:18:57;;;;;;;17.10;11.83;;;17.80;99.90;;;;;;5037969;28;20434;-78
2021/07/23 00:21:25;;;;;;;14.43;11.53;;;17.80;99.90;;;;;;5038244;28;20417;-81
2021/07/23 00:23:53;;;;;;;22.20;13.70;;;17.70;99.90;;;;;;5036873;28;20437;-79
2021/07/23 00:26:22;;;;;;;19.50;13.00;;;17.60;99.90;;;;;;5040026;28;20394;-80
2021/07/23 00:28:51;;;;;;;16.70;11.80;;;17.60;99.90;;;;;;5041981;28;20399;-79
2021/07/23 00:31:19;;;;;;;16.03;12.50;;;17.70;99.90;;;;;;5042820;28;20499;-81
2021/07/23 00:33:47;;;;;;;15.40;11.70;;;17.90;99.90;;;;;;5042437;28;20414;-81
2021/07/23 00:36:15;;;;;;;13.77;11.63;;;17.80;99.90;;;;;;5041673;28;20418;-79
2021/07/23 00:38:44;;;;;;;15.80;12.10;;;17.80;99.90;;;;;;5057956;28;20409;-78
2021/07/23 00:41:12;;;;;;;16.30;11.70;;;17.60;99.90;;;;;;5057531;28;20440;-80
2021/07/23 00:43:41;;;;;;;15.43;12.17;;;17.60;99.90;;;;;;5041909;28;20468;-79
2021/07/23 00:46:11;;;;;;;17.40;13.13;;;17.70;99.90;;;;;;5040660;28;21315;-80
2021/07/23 00:48:40;;;;;;;18.60;13.67;;;17.70;99.90;;;;;;5044029;28;20420;-80
2021/07/23 00:51:09;;;;;;;17.03;12.77;;;17.70;99.90;;;;;;5042245;28;20470;-80
2021/07/23 00:53:38;;;;;;;19.23;14.07;;;17.80;99.90;;;;;;5058271;28;20438;-79
2021/07/23 00:56:07;;;;;;;17.63;14.27;;;17.90;99.90;;;;;;5058978;28;20448;-81
2021/07/23 00:58:36;;;;;;;15.57;12.40;;;17.80;99.90;;;;;;5059049;28;20448;-80
2021/07/23 01:01:04;;;;;;;15.23;12.47;;;17.80;99.90;;;;;;5043841;28;20543;-81
2021/07/23 01:03:37;;;;;;;15.27;11.53;;;17.80;99.90;;;;;;5058723;28;20450;-80
2021/07/23 01:06:09;;;;;;;19.93;13.77;;;17.80;99.90;;;;;;5042402;28;20412;-80
2021/07/23 01:08:39;;;;;;;15.00;11.33;;;17.70;99.90;;;;;;5041782;28;20538;-79
2021/07/23 01:11:08;;;;;;;16.10;13.23;;;17.60;99.90;;;;;;5058665;28;20498;-79
2021/07/23 01:13:56;;;;;;;17.90;12.10;;;17.50;99.90;;;;;;5041669;28;20502;-79
2021/07/23 01:16:25;;;;;;;15.40;12.37;;;17.30;99.90;;;;;;5042654;28;20424;-80
2021/07/23 01:18:55;;;;;;;16.57;13.13;;;17.20;99.90;;;;;;5043385;28;20420;-80
2021/07/23 01:21:24;;;;;;;20.40;13.60;;;17.00;99.90;;;;;;5043756;28;20459;-80
2021/07/23 01:23:59;;;;;;;15.20;11.37;;;17.00;99.90;;;;;;5043137;28;20546;-80
2021/07/23 01:26:45;;;;;;;17.03;11.70;;;17.20;99.90;;;;;;5057925;28;20504;-79
2021/07/23 01:29:16;;;;;;;14.90;11.70;;;17.40;99.90;;;;;;5042001;28;20433;-80
2021/07/23 01:31:44;;;;;;;13.50;10.60;;;17.60;99.90;;;;;;5041995;28;20431;-80
2021/07/23 01:34:14;;;;;;;16.30;14.43;;;17.70;99.90;;;;;;5041103;28;20515;-81
2021/07/23 01:36:42;;;;;;;15.40;11.33;;;17.50;99.90;;;;;;5041871;28;20416;-79
2021/07/23 01:39:18;;;;;;;19.00;12.53;;;17.40;99.90;;;;;;5057472;28;20417;-79
2021/07/23 01:41:46;;;;;;;20.67;12.73;;;17.30;99.90;;;;;;5043011;28;20979;-79
2021/07/23 01:44:14;;;;;;;19.73;12.63;;;17.40;99.90;;;;;;5059575;28;20434;-80
2021/07/23 01:46:44;;;;;;;13.70;10.90;;;17.60;99.90;;;;;;5057341;28;20435;-80
2021/07/23 01:49:16;;;;;;;17.67;11.80;;;17.80;99.90;;;;;;5041031;28;20398;-79
2021/07/23 01:51:45;;;;;;;15.20;11.33;;;17.80;99.90;;;;;;5039390;28;20575;-78
2021/07/23 01:54:33;;;;;;;16.47;11.23;;;17.80;99.90;;;;;;5039415;28;20451;-79
2021/07/23 01:57:02;;;;;;;17.73;12.27;;;17.60;99.90;;;;;;5041197;28;20403;-79
2021/07/23 01:59:31;;;;;;;16.67;13.33;;;17.60;99.90;;;;;;5056010;28;20958;-79
2021/07/23 02:02:02;;;;;;;17.97;13.07;;;17.60;99.90;;;;;;5040233;28;20787;-80
2021/07/23 02:04:39;;;;;;;14.57;12.37;;;17.50;99.90;;;;;;5055854;28;20490;-79
2021/07/23 02:07:08;;;;;;;21.47;13.93;;;17.40;99.90;;;;;;5040985;28;20420;-79
2021/07/23 02:09:38;;;;;;;20.70;14.10;;;17.40;99.90;;;;;;5056355;28;20717;-79
2021/07/23 02:12:09;;;;;;;20.30;13.37;;;17.50;99.90;;;;;;5040376;28;20538;-77
2021/07/23 02:15:00;;;;;;;20.20;13.60;;;17.50;99.90;;;;;;5048921;28;20459;-76
2021/07/23 02:17:29;;;;;;;16.33;11.67;;;17.50;99.90;;;;;;5057786;28;20527;-77
2021/07/23 02:19:58;;;;;;;18.50;13.10;;;17.60;99.90;;;;;;5059154;28;20383;-77
2021/07/23 02:22:30;;;;;;;15.70;10.83;;;17.60;99.90;;;;;;5056528;28;20452;-78
2021/07/23 02:25:00;;;;;;;16.07;12.10;;;17.60;99.90;;;;;;5058429;28;20423;-77
2021/07/23 02:27:33;;;;;;;17.77;12.33;;;17.60;99.90;;;;;;5074917;28;20425;-77
2021/07/23 02:30:03;;;;;;;16.70;12.60;;;17.60;99.90;;;;;;5074940;28;20406;-77
2021/07/23 02:32:38;;;;;;;17.50;14.20;;;17.60;99.90;;;;;;5057845;28;20470;-77
2021/07/23 02:35:08;;;;;;;22.13;14.13;;;17.50;99.90;;;;;;5072124;28;20994;-79
2021/07/23 02:38:03;;;;;;;15.90;11.67;;;17.50;99.90;;;;;;5046086;28;20441;-78
2021/07/23 02:40:32;;;;;;;14.60;12.67;;;17.40;99.90;;;;;;5052868;28;20428;-79
2021/07/23 02:43:03;;;;;;;16.83;13.10;;;17.30;99.90;;;;;;5049778;28;20431;-77
2021/07/23 02:45:37;;;;;;;20.10;13.70;;;17.20;99.90;;;;;;5074476;28;20438;-77
2021/07/23 02:48:07;;;;;;;20.73;13.13;;;17.00;99.90;;;;;;5057960;28;20428;-76
2021/07/23 02:50:38;;;;;;;17.23;13.43;;;17.10;99.90;;;;;;5057900;28;20450;-78
2021/07/23 02:53:07;;;;;;;17.20;13.00;;;17.20;99.90;;;;;;5069513;28;20450;-79
2021/07/23 02:55:38;;;;;;;16.53;12.37;;;17.20;99.90;;;;;;5067429;28;20433;-77
2021/07/23 02:58:06;;;;;;;14.23;11.40;;;17.30;99.90;;;;;;5050758;28;20502;-77
2021/07/23 03:00:35;;;;;;;14.30;11.70;;;17.40;99.90;;;;;;5067986;28;20455;-82
2021/07/23 03:03:04;;;;;;;17.60;12.30;;;17.30;99.90;;;;;;5063968;28;20403;-78
2021/07/23 03:05:36;;;;;;;18.30;12.47;;;17.30;99.90;;;;;;5047685;28;20440;-79
2021/07/23 03:08:11;;;;;;;15.73;11.40;;;17.20;99.90;;;;;;5065492;28;20444;-80
2021/07/23 03:10:53;;;;;;;18.33;13.03;;;17.10;99.90;;;;;;5045557;28;20865;-80
2021/07/23 03:13:24;;;;;;;18.30;12.63;;;17.20;99.90;;;;;;5059519;28;21020;-79
2021/07/23 03:15:54;;;;;;;20.60;13.13;;;17.10;99.90;;;;;;5041893;28;20797;-79
2021/07/23 03:18:24;;;;;;;17.80;13.83;;;17.20;99.90;;;;;;5042909;28;20406;-78
2021/07/23 03:20:53;;;;;;;17.23;13.67;;;17.20;99.90;;;;;;5059083;28;20440;-79
2021/07/23 03:23:22;;;;;;;18.60;12.10;;;17.10;99.90;;;;;;5057489;28;20446;-80
2021/07/23 03:25:55;;;;;;;17.83;12.60;;;17.10;99.90;;;;;;5043201;28;20466;-80
2021/07/23 03:28:47;;;;;;;16.20;11.87;;;17.30;99.90;;;;;;5035698;28;21016;-79
2021/07/23 03:31:18;;;;;;;15.80;12.60;;;17.30;99.90;;;;;;5057580;28;20853;-80
2021/07/23 03:34:05;;;;;;;15.33;11.03;;;17.20;99.90;;;;;;5041497;28;20994;-81
2021/07/23 03:36:52;;;;;;;17.60;13.13;;;17.00;99.90;;;;;;5045361;28;20981;-79
2021/07/23 03:39:28;;;;;;;20.30;12.33;;;16.90;99.90;;;;;;5061825;28;20509;-79
2021/07/23 03:41:59;;;;;;;27.53;13.37;;;17.00;99.90;;;;;;5062606;28;20950;-78
2021/07/23 03:44:27;;;;;;;17.97;13.93;;;17.20;99.90;;;;;;5067178;28;20425;-79
2021/07/23 03:46:56;;;;;;;20.13;12.60;;;17.10;99.90;;;;;;5050003;28;20415;-79
2021/07/23 03:49:25;;;;;;;20.40;15.33;;;17.10;99.90;;;;;;5039824;28;20432;-80
2021/07/23 03:51:56;;;;;;;18.40;13.37;;;17.30;99.90;;;;;;5039115;28;20855;-80
2021/07/23 03:54:27;;;;;;;17.83;13.93;;;17.20;99.90;;;;;;5053515;28;20456;-80
2021/07/23 03:56:55;;;;;;;21.90;16.40;;;17.10;99.90;;;;;;5036397;28;20837;-80
2021/07/23 03:59:25;;;;;;;21.60;14.30;;;17.10;99.90;;;;;;5037855;28;20409;-81
2021/07/23 04:01:59;;;;;;;16.97;13.30;;;17.10;99.90;;;;;;5036712;28;20433;-80
2021/07/23 04:04:28;;;;;;;12.63;11.27;;;17.00;99.90;;;;;;5035883;28;20545;-79
2021/07/23 04:06:59;;;;;;;18.30;13.17;;;16.80;99.90;;;;;;5036851;28;20423;-78
2021/07/23 04:09:30;;;;;;;19.23;13.63;;;16.70;99.90;;;;;;5037716;28;20473;-81
2021/07/23 04:12:00;;;;;;;18.23;12.43;;;16.90;99.90;;;;;;5053438;28;20771;-79
2021/07/23 04:14:40;;;;;;;14.93;11.40;;;17.00;99.90;;;;;;5037484;28;20864;-79
2021/07/23 04:17:09;;;;;;;19.17;13.43;;;17.10;99.90;;;;;;5053123;28;20964;-81
2021/07/23 04:19:37;;;;;;;20.83;12.60;;;17.00;99.90;;;;;;5051545;28;20432;-79
2021/07/23 04:22:07;;;;;;;21.07;13.70;;;16.90;99.90;;;;;;5036757;28;20432;-80
2021/07/23 04:24:43;;;;;;;15.47;11.70;;;17.00;99.90;;;;;;5035321;28;20459;-79
2021/07/23 04:27:13;;;;;;;18.20;13.00;;;17.10;99.90;;;;;;5049828;28;20479;-80
2021/07/23 04:29:58;;;;;;;20.50;11.60;;;17.30;99.90;;;;;;5050146;28;20457;-77
2021/07/23 04:32:26;;;;;;;23.30;14.93;;;17.40;99.90;;;;;;5034853;28;20447;-79
2021/07/23 04:34:54;;;;;;;15.83;12.53;;;17.70;99.90;;;;;;5051365;28;20941;-79
2021/07/23 04:37:22;;;;;;;20.60;13.03;;;17.80;99.90;;;;;;5036885;28;20411;-78
2021/07/23 04:39:59;;;;;;;15.90;13.50;;;17.80;99.90;;;;;;5036459;28;20824;-79
2021/07/23 04:42:27;;;;;;;19.73;14.90;;;17.70;99.90;;;;;;5037806;28;20444;-80
2021/07/23 04:44:58;;;;;;;15.70;13.80;;;17.50;99.90;;;;;;5035941;28;20462;-81
2021/07/23 04:47:27;;;;;;;14.03;10.97;;;17.40;99.90;;;;;;5036117;28;20413;-79
2021/07/23 04:49:55;;;;;;;18.07;14.10;;;17.60;99.90;;;;;;5036766;28;20432;-79
2021/07/23 04:52:43;;;;;;;20.60;14.80;;;17.70;99.90;;;;;;5037564;28;20494;-80
2021/07/23 04:55:30;;;;;;;18.53;14.17;;;17.80;99.90;;;;;;5037984;28;20949;-80
2021/07/23 04:58:13;;;;;;;17.63;12.17;;;17.80;99.90;;;;;;5052891;28;20414;-79
2021/07/23 05:00:42;;;;;;;16.87;13.57;;;17.90;99.90;;;;;;5036367;28;20450;-81
2021/07/23 05:03:11;;;;;;;18.53;15.07;;;18.00;99.90;;;;;;5038530;28;20790;-81
2021/07/23 05:05:41;;;;;;;19.23;13.87;;;18.20;99.90;;;;;;5070346;22;20860;-69
2021/07/23 05:08:11;;;;;;;22.30;15.20;;;18.40;99.90;;;;;;5050858;28;20404;-69
2021/07/23 05:10:42;;;;;;;16.70;14.20;;;18.70;99.90;;;;;;5068827;28;20423;-69
2021/07/23 05:13:11;;;;;;;13.30;11.90;;;18.90;99.90;;;;;;5070681;28;20550;-69
2021/07/23 05:15:40;;;;;;;18.27;14.60;;;19.30;99.90;;;;;;5071897;28;20944;-69
2021/07/23 05:18:10;;;;;;;21.70;13.00;;;19.80;99.90;;;;;;5072970;28;20422;-69
2021/07/23 05:20:39;;;;;;;19.63;13.27;;;20.00;99.90;;;;;;5072507;28;20421;-69
2021/07/23 05:23:08;;;;;;;19.27;13.90;;;20.30;99.90;;;;;;5072384;28;20962;-70
2021/07/23 05:25:37;;;;;;;18.13;14.80;;;20.20;99.90;;;;;;5071894;28;20791;-70
2021/07/23 05:28:06;;;;;;;20.20;13.93;;;19.90;99.90;;;;;;5071474;28;20447;-70
2021/07/23 05:30:34;;;;;;;18.27;13.30;;;19.70;99.90;;;;;;5071561;28;20431;-69
2021/07/23 05:33:02;;;;;;;16.37;12.90;;;19.60;99.90;;;;;;5072687;28;20457;-69
2021/07/23 05:35:31;;;;;;;16.63;12.50;;;19.30;99.90;;;;;;5072001;28;20959;-69
2021/07/23 05:38:00;;;;;;;17.97;14.00;;;19.00;99.90;;;;;;5072508;28;20819;-69
2021/07/23 05:40:28;;;;;;;15.87;13.13;;;19.00;99.90;;;;;;5072208;28;20450;-69
2021/07/23 05:42:56;;;;;;;17.90;12.63;;;18.70;99.90;;;;;;5072536;28;20419;-69
2021/07/23 05:45:24;;;;;;;19.30;13.50;;;18.60;99.90;;;;;;5071783;28;20922;-69
2021/07/23 05:47:52;;;;;;;20.80;14.67;;;18.50;99.90;;;;;;5054507;28;20425;-70
2021/07/23 05:50:20;;;;;;;17.73;11.07;;;18.50;99.90;;;;;;5072036;28;20416;-69
2021/07/23 05:52:50;;;;;;;16.10;12.13;;;18.70;99.90;;;;;;5072354;28;20405;-70
2021/07/23 05:55:18;;;;;;;18.60;14.20;;;19.30;99.90;;;;;;5053843;28;20416;-70
2021/07/23 05:57:46;;;;;;;17.73;13.40;;;19.60;99.90;;;;;;5072269;28;20430;-69
2021/07/23 06:00:15;;;;;;;19.83;13.30;;;19.80;99.90;;;;;;5072006;28;20416;-72
2021/07/23 06:02:43;;;;;;;20.20;13.20;;;20.10;99.90;;;;;;5054456;28;20945;-70
2021/07/23 06:05:12;;;;;;;18.50;13.27;;;20.40;99.90;;;;;;5071795;28;20949;-70
2021/07/23 06:07:40;;;;;;;18.40;13.03;;;20.80;99.90;;;;;;5071897;28;20773;-71
2021/07/23 06:10:11;;;;;;;17.60;15.53;;;21.00;99.90;;;;;;5072055;28;20413;-70
2021/07/23 06:12:39;;;;;;;16.60;12.70;;;21.30;99.90;;;;;;5072290;28;20431;-71
2021/07/23 06:15:08;;;;;;;19.47;14.17;;;21.10;99.90;;;;;;5072622;28;20476;-71
2021/07/23 06:17:36;;;;;;;19.50;15.50;;;21.20;99.90;;;;;;5073878;28;20393;-70
2021/07/23 06:20:05;;;;;;;17.23;14.27;;;21.20;99.90;;;;;;5073877;28;20818;-70
2021/07/23 06:22:33;;;;;;;18.67;13.10;;;21.40;99.90;;;;;;5074461;28;20444;-71
2021/07/23 06:25:02;;;;;;;16.53;12.70;;;21.50;99.90;;;;;;5072559;28;20504;-71
2021/07/23 06:27:31;;;;;;;16.67;14.33;;;21.70;99.90;;;;;;5073195;28;20399;-71
2021/07/23 06:29:59;;;;;;;22.57;17.10;;;21.60;99.90;;;;;;5073891;28;20597;-71
2021/07/23 06:32:30;;;;;;;16.30;12.73;;;21.70;99.90;;;;;;5074228;28;20414;-70
2021/07/23 06:34:59;;;;;;;18.17;11.50;;;21.90;99.90;;;;;;5055318;28;20494;-69
2021/07/23 06:37:27;;;;;;;17.00;12.77;;;21.90;99.90;;;;;;5071761;28;20542;-72
2021/07/23 06:39:55;;;;;;;16.67;12.83;;;21.90;99.90;;;;;;5071656;28;20442;-72
2021/07/23 06:42:24;;;;;;;18.00;13.97;;;22.00;99.90;;;;;;5072505;28;20820;-72
2021/07/23 06:44:53;;;;;;;20.50;12.60;;;22.10;99.90;;;;;;5072385;28;20400;-70
2021/07/23 06:47:22;;;;;;;15.30;12.20;;;22.30;99.90;;;;;;5072957;28;20419;-71
2021/07/23 06:49:51;;;;;;;13.53;10.30;;;22.50;99.90;;;;;;5072388;28;20396;-69
2021/07/23 06:52:19;;;;;;;16.93;11.43;;;22.30;99.90;;;;;;5072940;28;20425;-69
2021/07/23 06:54:51;;;;;;;14.60;11.27;;;22.10;99.90;;;;;;5072697;28;20451;-69
2021/07/23 06:57:19;;;;;;;14.47;11.63;;;22.00;99.90;;;;;;5072059;28;20377;-70
2021/07/23 06:59:49;;;;;;;14.20;10.40;;;22.10;99.90;;;;;;5070315;28;20431;-71
2021/07/23 07:02:18;;;;;;;17.20;10.87;;;22.10;99.90;;;;;;5071030;28;20427;-70
2021/07/23 07:04:47;;;;;;;15.57;12.47;;;22.20;99.90;;;;;;5070965;28;20438;-70
2021/07/23 07:07:16;;;;;;;13.53;10.97;;;22.00;99.90;;;;;;5068303;28;20897;-70
2021/07/23 07:09:44;;;;;;;11.03;9.63;;;22.00;99.90;;;;;;5070256;28;20412;-70
2021/07/23 07:12:12;;;;;;;11.97;9.53;;;22.10;99.90;;;;;;5070041;28;20430;-70
2021/07/23 07:14:41;;;;;;;12.77;9.07;;;22.10;99.90;;;;;;5070667;28;20978;-70
2021/07/23 07:17:10;;;;;;;10.03;7.50;;;22.10;99.90;;;;;;5070218;28;20428;-70
2021/07/23 07:19:40;;;;;;;11.10;9.80;;;22.40;99.90;;;;;;5070590;28;20488;-71
2021/07/23 07:22:08;;;;;;;12.23;9.47;;;22.60;99.90;;;;;;5071579;28;20930;-70
2021/07/23 07:24:36;;;;;;;9.03;7.30;;;22.80;99.90;;;;;;5052946;28;20430;-70
2021/07/23 07:27:04;;;;;;;11.70;7.87;;;22.80;99.90;;;;;;5070542;28;20430;-70
2021/07/23 07:29:32;;;;;;;9.70;7.33;;;23.10;99.90;;;;;;5071066;28;20810;-71
2021/07/23 07:32:01;;;;;;;10.57;8.60;;;23.40;99.90;;;;;;5070679;28;20393;-71
2021/07/23 07:34:34;;;;;;;10.77;9.17;;;23.40;99.90;;;;;;5070876;28;20496;-70
2021/07/23 07:37:04;;;;;;;11.50;8.47;;;23.30;99.90;;;;;;5069976;28;20430;-70
2021/07/23 07:39:33;;;;;;;12.20;8.00;;;23.40;99.90;;;;;;5070647;28;20423;-72
2021/07/23 07:42:02;;;;;;;9.10;8.00;;;23.30;99.90;;;;;;5070482;28;20415;-70
2021/07/23 07:44:30;;;;;;;10.33;7.67;;;23.10;99.90;;;;;;5052874;28;20409;-70
2021/07/23 07:46:59;;;;;;;9.27;8.10;;;23.00;99.90;;;;;;5070405;28;20901;-71
2021/07/23 07:49:27;;;;;;;8.63;6.63;;;23.10;99.90;;;;;;5070612;28;20424;-71
2021/07/23 07:51:55;;;;;;;8.43;6.60;;;23.40;99.90;;;;;;5070431;28;20427;-71
2021/07/23 07:54:24;;;;;;;8.47;7.00;;;23.50;99.90;;;;;;5070650;28;20440;-70
2021/07/23 07:56:54;;;;;;;9.00;7.20;;;23.80;99.90;;;;;;5068952;28;20409;-72
2021/07/23 07:59:22;;;;;;;9.03;7.03;;;24.00;99.90;;;;;;5070508;28;20442;-70
2021/07/23 08:01:50;;;;;;;12.10;9.33;;;24.10;99.90;;;;;;5070651;28;20409;-70
2021/07/23 08:04:19;;;;;;;8.90;6.90;;;24.50;99.90;;;;;;5070701;28;20440;-70
2021/07/23 08:06:48;;;;;;;8.77;7.00;;;24.50;99.90;;;;;;5070100;28;20396;-71
2021/07/23 08:09:16;;;;;;;9.70;7.67;;;23.80;99.90;;;;;;5070450;28;20426;-70
2021/07/23 08:11:46;;;;;;;7.93;6.63;;;23.70;99.90;;;;;;5070426;28;20463;-70
2021/07/23 08:14:14;;;;;;;7.87;7.10;;;23.80;99.90;;;;;;5070352;28;20473;-71
2021/07/23 08:16:42;;;;;;;7.83;7.03;;;24.00;99.90;;;;;;5070153;28;20452;-70
2021/07/23 08:19:10;;;;;;;10.83;7.27;;;24.10;99.90;;;;;;5070095;28;20402;-70
2021/07/23 08:21:38;;;;;;;6.50;5.90;;;23.80;99.90;;;;;;5069923;28;20448;-70
2021/07/23 08:24:07;;;;;;;8.97;6.30;;;23.90;99.90;;;;;;5070630;28;20401;-70
2021/07/23 08:26:35;;;;;;;8.03;7.30;;;23.90;99.90;;;;;;5069765;28;20488;-71
2021/07/23 08:29:04;;;;;;;9.00;6.60;;;24.20;99.90;;;;;;5070645;28;20513;-71
2021/07/23 08:31:32;;;;;;;6.50;5.60;;;24.00;99.90;;;;;;5070269;28;20985;-70
2021/07/23 08:34:00;;;;;;;7.67;6.90;;;23.70;99.90;;;;;;5072141;28;20756;-69
2021/07/23 08:36:29;;;;;;;6.43;5.33;;;23.20;99.90;;;;;;5081292;28;20464;-69
2021/07/23 08:38:59;;;;;;;9.30;6.83;;;22.90;99.90;;;;;;5077140;28;20404;-69
2021/07/23 08:41:27;;;;;;;8.93;5.87;;;22.70;99.90;;;;;;5070386;28;21177;-69
2021/07/23 08:43:55;;;;;;;8.97;7.00;;;22.70;99.90;;;;;;5070618;28;20393;-70
2021/07/23 08:46:27;;;;;;;8.87;6.33;;;22.70;99.90;;;;;;5069030;28;20393;-70
2021/07/23 08:48:55;;;;;;;10.23;7.50;;;22.70;99.90;;;;;;5073781;28;20397;-70
2021/07/23 08:51:23;;;;;;;9.63;7.57;;;22.80;99.90;;;;;;5073519;28;20530;-70
2021/07/23 08:53:51;;;;;;;8.70;6.90;;;23.00;99.90;;;;;;5073969;28;20429;-69
2021/07/23 08:56:19;;;;;;;7.50;6.80;;;23.20;99.90;;;;;;5072011;28;20465;-69
2021/07/23 08:58:48;;;;;;;7.40;6.27;;;23.30;99.90;;;;;;5074365;28;20433;-69
2021/07/23 09:01:16;;;;;;;7.27;6.57;;;23.60;99.90;;;;;;5073898;28;20424;-69
2021/07/23 09:03:46;;;;;;;8.87;6.67;;;23.70;99.90;;;;;;5073766;28;20432;-71
2021/07/23 09:06:15;;;;;;;6.93;6.10;;;23.70;99.90;;;;;;5073283;28;20855;-69
2021/07/23 09:08:47;;;;;;;11.63;7.20;;;23.70;99.90;;;;;;5055488;28;20430;-69
2021/07/23 09:11:16;;;;;;;7.53;6.80;;;23.70;99.90;;;;;;5073927;28;20850;-69
2021/07/23 09:13:44;;;;;;;7.77;6.37;;;23.50;99.90;;;;;;5055418;28;20433;-69
2021/07/23 09:16:25;;;;;;;10.90;6.00;;;23.70;99.90;;;;;;5073596;28;20455;-69
2021/07/23 09:19:07;;;;;;;9.60;7.17;;;24.20;99.90;;;;;;5073612;28;20401;-70
2021/07/23 09:21:38;;;;;;;8.70;7.40;;;24.60;99.90;;;;;;5073500;28;20922;-70
2021/07/23 09:24:08;;;;;;;10.70;7.27;;;24.50;99.90;;;;;;5073818;28;20418;-69
2021/07/23 09:26:41;;;;;;;8.13;7.10;;;24.50;99.90;;;;;;5073504;28;20425;-72
2021/07/23 09:29:10;;;;;;;8.63;7.73;;;24.90;99.90;;;;;;5073617;28;20493;-69
2021/07/23 09:31:38;;;;;;;7.70;7.00;;;25.20;99.90;;;;;;5073629;28;20456;-72
2021/07/23 09:34:31;;;;;;;7.37;5.90;;;25.10;99.90;;;;;;5074104;28;20422;-69
2021/07/23 09:37:07;;;;;;;9.23;7.33;;;25.40;99.90;;;;;;5073274;28;20441;-70
2021/07/23 09:39:57;;;;;;;7.70;6.93;;;25.30;99.90;;;;;;5073141;28;20414;-70
2021/07/23 09:42:26;;;;;;;8.47;7.30;;;25.30;99.90;;;;;;5072863;28;20426;-71
2021/07/23 09:45:02;;;;;;;12.03;8.00;;;25.60;99.90;;;;;;5073162;28;20415;-70
2021/07/23 09:47:30;;;;;;;10.80;8.47;;;25.50;99.90;;;;;;5072956;28;20483;-71
2021/07/23 09:50:01;;;;;;;13.03;7.70;;;25.00;99.90;;;;;;5072827;28;20873;-71
2021/07/23 09:52:30;;;;;;;10.23;7.93;;;24.50;99.90;;;;;;5072948;28;20422;-71
2021/07/23 09:54:58;;;;;;;8.93;7.37;;;24.00;99.90;;;;;;5072525;28;20418;-72
2021/07/23 09:57:30;;;;;;;8.57;7.20;;;23.90;99.90;;;;;;5072796;28;20492;-71
2021/07/23 10:00:02;;;;;;;15.13;7.60;;;24.40;99.90;;;;;;5071970;28;20575;-72
2021/07/23 10:02:33;;;;;;;8.73;7.83;;;24.70;99.90;;;;;;5072503;28;20385;-70
2021/07/23 10:05:05;;;;;;;12.77;8.53;;;24.50;99.90;;;;;;5072495;28;20533;-70
2021/07/23 10:07:39;;;;;;;10.07;9.00;;;24.10;99.90;;;;;;5072579;28;21003;-71
2021/07/23 10:10:12;;;;;;;12.03;8.63;;;24.10;99.90;;;;;;5072613;28;20485;-71
2021/07/23 10:12:44;;;;;;;8.80;7.83;;;24.10;99.90;;;;;;5072286;28;20419;-70
2021/07/23 10:15:13;;;;;;;8.17;7.30;;;24.10;99.90;;;;;;5072211;28;20397;-70
2021/07/23 10:17:42;;;;;;;8.80;7.90;;;24.40;99.90;;;;;;5072318;28;20428;-71
2021/07/23 10:20:13;;;;;;;11.47;8.10;;;24.60;99.90;;;;;;5072519;28;20413;-73
2021/07/23 10:22:43;;;;;;;15.33;10.40;;;24.70;99.90;;;;;;5072140;28;20941;-70
2021/07/23 10:25:12;;;;;;;11.23;8.73;;;24.50;99.90;;;;;;5072195;28;20397;-71
2021/07/23 10:27:40;;;;;;;12.30;8.80;;;24.50;99.90;;;;;;5072338;28;20434;-71
2021/07/23 10:30:30;;;;;;;10.37;7.37;;;24.50;99.90;;;;;;5055142;28;21036;-72
2021/07/23 10:32:58;;;;;;;9.13;7.90;;;24.90;99.90;;;;;;5072982;28;20389;-71
2021/07/23 10:35:35;;;;;;;9.27;8.37;;;25.30;99.90;;;;;;5071629;28;20413;-72
2021/07/23 10:38:07;;;;;;;11.77;9.17;;;25.80;99.90;;;;;;5071415;28;20453;-71
2021/07/23 10:40:40;;;;;;;12.93;9.23;;;26.20;99.90;;;;;;5071982;28;20442;-72
2021/07/23 10:43:37;;;;;;;9.67;8.60;;;26.10;99.90;;;;;;5072183;28;20434;-73
2021/07/23 10:46:06;;;;;;;10.00;8.67;;;25.80;99.90;;;;;;5071724;28;20468;-71
2021/07/23 10:48:50;;;;;;;12.60;8.83;;;25.60;99.90;;;;;;5071829;28;20517;-72
2021/07/23 10:51:52;;;;;;;12.50;8.97;;;26.10;99.90;;;;;;5071763;28;20798;-72
2021/07/23 10:54:21;;;;;;;9.87;8.87;;;26.70;99.90;;;;;;5070398;28;20816;-72
2021/07/23 10:57:15;;;;;;;9.90;8.90;;;26.80;99.90;;;;;;5071302;28;20493;-72
2021/07/23 10:59:54;;;;;;;9.47;7.70;;;27.10;99.90;;;;;;5071416;28;20406;-72
2021/07/23 11:02:42;;;;;;;8.43;7.20;;;26.80;99.90;;;;;;5071625;28;20422;-72
2021/07/23 11:05:12;;;;;;;9.80;7.40;;;26.80;99.90;;;;;;5077863;22;20476;-75
2021/07/23 11:07:43;;;;;;;11.30;9.13;;;26.30;99.90;;;;;;5066850;28;20443;-75
2021/07/23 11:10:20;;;;;;;11.83;9.73;;;25.70;99.90;;;;;;5067321;28;20481;-73
2021/07/23 11:12:48;;;;;;;10.33;8.80;;;25.10;99.90;;;;;;5052076;28;20461;-73
2021/07/23 11:15:18;;;;;;;10.50;8.43;;;25.20;99.90;;;;;;5050486;28;20402;-73
2021/07/23 11:17:53;;;;;;;10.40;8.60;;;25.30;99.90;;;;;;5051524;28;20467;-75
2021/07/23 11:20:40;;;;;;;9.83;8.57;;;25.40;99.90;;;;;;5050137;28;20470;-74
2021/07/23 11:23:14;;;;;;;11.50;9.50;;;25.50;99.90;;;;;;5051605;28;20430;-73
2021/07/23 11:26:01;;;;;;;9.70;8.70;;;25.20;99.90;;;;;;5049917;28;20444;-74
2021/07/23 11:28:29;;;;;;;10.70;8.97;;;25.10;99.90;;;;;;5049971;28;20813;-73
2021/07/23 11:30:58;;;;;;;9.57;8.67;;;25.20;99.90;;;;;;5049651;28;20483;-75
2021/07/23 11:33:29;;;;;;;11.80;8.20;;;25.60;99.90;;;;;;5049971;28;20478;-75
2021/07/23 11:35:58;;;;;;;10.53;7.90;;;26.00;99.90;;;;;;5049948;28;20470;-73
2021/07/23 11:38:27;;;;;;;9.23;8.23;;;26.30;99.90;;;;;;5050916;28;20488;-75
2021/07/23 11:41:06;;;;;;;8.90;8.00;;;26.30;99.90;;;;;;5051203;28;20809;-72
2021/07/23 11:43:34;;;;;;;10.13;8.20;;;26.00;99.90;;;;;;5051127;28;20437;-72
2021/07/23 11:46:12;;;;;;;9.47;7.70;;;25.80;99.90;;;;;;5049697;28;20438;-72
2021/07/23 11:48:40;;;;;;;8.67;7.77;;;25.80;99.90;;;;;;5050689;28;20427;-73
2021/07/23 11:51:09;;;;;;;9.60;8.60;;;26.30;99.90;;;;;;5050683;28;20451;-72
2021/07/23 11:53:41;;;;;;;8.83;7.30;;;26.30;99.90;;;;;;5050528;28;20423;-72
2021/07/23 11:56:10;;;;;;;9.53;8.57;;;26.20;99.90;;;;;;5049979;28;20424;-73
2021/07/23 11:58:38;;;;;;;7.77;6.70;;;25.60;99.90;;;;;;5048203;28;20423;-73
2021/07/23 12:01:18;;;;;;;8.40;7.67;;;25.30;99.90;;;;;;5062487;28;20441;-76
2021/07/23 12:03:54;;;;;;;10.03;8.87;;;25.20;99.90;;;;;;5045774;28;20518;-74
2021/07/23 12:06:26;;;;;;;10.37;8.70;;;25.30;99.90;;;;;;5065251;28;20438;-75
2021/07/23 12:08:57;;;;;;;8.93;7.83;;;25.40;99.90;;;;;;5048990;28;20505;-73
2021/07/23 12:11:28;;;;;;;11.37;8.80;;;25.40;99.90;;;;;;5050791;28;20454;-73
2021/07/23 12:14:05;;;;;;;9.80;7.40;;;25.30;99.90;;;;;;5051004;28;20933;-73
2021/07/23 12:16:39;;;;;;;8.07;6.97;;;25.30;99.90;;;;;;5050199;28;20462;-73
2021/07/23 12:19:10;;;;;;;8.30;7.50;;;25.40;99.90;;;;;;5049505;28;20509;-74
2021/07/23 12:21:40;;;;;;;7.77;6.83;;;25.70;99.90;;;;;;5052917;28;20549;-75
2021/07/23 12:24:11;;;;;;;10.70;9.07;;;25.80;99.90;;;;;;5057087;28;20468;-74
2021/07/23 12:26:40;;;;;;;9.17;7.20;;;25.40;99.90;;;;;;5056893;28;20429;-74
2021/07/23 12:29:10;;;;;;;10.07;9.10;;;25.70;99.90;;;;;;5057207;28;20423;-73
2021/07/23 12:31:38;;;;;;;9.17;6.53;;;25.90;99.90;;;;;;5072592;28;20872;-74
2021/07/23 12:34:09;;;;;;;8.23;7.07;;;26.00;99.90;;;;;;5072813;28;20435;-72
2021/07/23 12:36:47;;;;;;;8.33;7.53;;;25.80;99.90;;;;;;5058686;28;20465;-73
2021/07/23 12:39:17;;;;;;;8.63;7.87;;;26.20;99.90;;;;;;5058936;28;20398;-74
2021/07/23 12:41:46;;;;;;;8.67;7.47;;;26.10;99.90;;;;;;5060023;28;20521;-77
2021/07/23 12:44:15;;;;;;;10.53;7.67;;;25.90;99.90;;;;;;5061766;28;20457;-73
2021/07/23 12:46:46;;;;;;;8.40;7.50;;;25.80;99.90;;;;;;5062078;28;20787;-75
2021/07/23 12:49:17;;;;;;;11.80;8.70;;;26.20;99.90;;;;;;5069469;28;20438;-73
2021/07/23 12:51:46;;;;;;;9.77;8.40;;;26.20;99.90;;;;;;5072885;28;20916;-72
2021/07/23 12:54:15;;;;;;;9.97;7.70;;;26.30;99.90;;;;;;5072904;28;20435;-73